Terminal Aerodrome Forecast
Issued by NWS

Home | Current Version | Previous Version | Text Only | Print | Product List | Glossary On
Versions: 1 2 3 4 5 6 7 8 9 10 11 12 13 14 15 16 17 18 19 20 21 22 23
000
FTUS45 KBOU 282324
TAFBJC
TAF
KBJC 282324Z 2900/2924 02011KT P6SM SCT060 BKN120
      TEMPO 2900/2903 VRB20G35KT -TSRA BKN070CB
     FM290300 11008KT P6SM VCTS SCT070CB BKN120
     FM290500 VRB05KT P6SM SCT070 BKN120
     FM291000 34006KT P6SM VCFG BKN010
     FM291600 03008KT P6SM SCT010 BKN030
     FM291800 06008KT P6SM SCT030 SCT080
     FM292000 11010KT P6SM SCT060 BKN080 PROB30 2922/2924 -TSRA
      BKN060CB=

USA.gov is the U.S. government's official web portal to all federal, state and local government web resources and services.